Port Saunders, Canada
Current Conditions -  °F | °C
As of 3:41 AM on Tuesday 21 Oct 2014 (Local Time) from CWDH Reporting Station
Scattered Clouds Scattered Clouds  
Wind Chill: 36°   Ceiling: Unl
Heat Index: 45°   Visibility: 5mi
Dew Point: 39°   Wind: 22mph
Humidity: 80%   Direction: 260°W
Pressure: 29.5"   Gusts: 36mph
Location:  50.65°N, 57.27°W
Report Text: CWDH 210541Z AUTO 26019G31KT 5SM SCT013 07/04 A2950 RMK PK WND 25037/// T00700037 P0002 WSI/SWOB
Loading
Personal Weather Stations






























Interactive Weather Map New forecast layout! Learn more

10-Day Weather Forecast

Advertisements
Track Severe Weather on mobile